<?xml version="1.0" encoding="UTF-8" standalone="no" ?>
<gpx xmlns="http://www.topografix.com/GPX/1/1" xmlns:xsi="http://www.w3.org/2001/XMLSchema-instance" xsi:schemaLocation="http://www.topografix.com/GPX/1/1 http://www.topografix.com/GPX/1/1/gpx.xsd" version="1.1" creator="VisuGPX - https://www.visugpx.com">
  <metadata>
    <name>LesSables_RocStJeanLaChaume_13-19km</name>
    <desc><![CDATA[gnerando idor:5641305_6533341]]></desc>
  </metadata>
  <trk>
    <name><![CDATA[LesSables_RocStJeanChaume_13km-5641305]]></name>
    <extensions>
      <line xmlns="http://www.topografix.com/GPX/gpx_style/0/2">
        <color>0000FF</color>
        <width>4</width>
      </line>
    </extensions>
    <trkseg>
      <trkpt lat="46.46686" lon="-1.73584">
        <ele>6</ele>
        <time>2023-11-01T10:58:48Z</time>
      </trkpt>
      <trkpt lat="46.46763" lon="-1.73687">
        <ele>4</ele>
        <time>2023-11-01T11:01:08Z</time>
      </trkpt>
      <trkpt lat="46.46831" lon="-1.73725">
        <ele>4</ele>
        <time>2023-11-01T11:02:45Z</time>
      </trkpt>
      <trkpt lat="46.46822" lon="-1.73957">
        <ele>5</ele>
        <time>2023-11-01T11:06:19Z</time>
      </trkpt>
      <trkpt lat="46.46893" lon="-1.74167">
        <ele>4</ele>
        <time>2023-11-01T11:09:54Z</time>
      </trkpt>
      <trkpt lat="46.4702" lon="-1.7424">
        <ele>7</ele>
        <time>2023-11-01T11:12:56Z</time>
      </trkpt>
      <trkpt lat="46.47345" lon="-1.74807">
        <ele>8</ele>
        <time>2023-11-01T11:24:14Z</time>
      </trkpt>
      <trkpt lat="46.47519" lon="-1.75592">
        <ele>6</ele>
        <time>2023-11-01T11:36:52Z</time>
      </trkpt>
      <trkpt lat="46.47812" lon="-1.76">
        <ele>6</ele>
        <time>2023-11-01T11:45:53Z</time>
      </trkpt>
      <trkpt lat="46.48099" lon="-1.76137">
        <ele>5</ele>
        <time>2023-11-01T11:52:37Z</time>
      </trkpt>
      <trkpt lat="46.48885" lon="-1.76978">
        <ele>6</ele>
        <time>2023-11-01T12:14:19Z</time>
      </trkpt>
      <trkpt lat="46.49124" lon="-1.77498">
        <ele>5</ele>
        <time>2023-11-01T12:23:54Z</time>
      </trkpt>
      <trkpt lat="46.49266" lon="-1.77708">
        <ele>6</ele>
        <time>2023-11-01T12:28:24Z</time>
      </trkpt>
      <trkpt lat="46.49408" lon="-1.78141">
        <ele>8</ele>
        <time>2023-11-01T12:35:45Z</time>
      </trkpt>
      <trkpt lat="46.49461" lon="-1.78583">
        <ele>8</ele>
        <time>2023-11-01T12:42:37Z</time>
      </trkpt>
      <trkpt lat="46.49461" lon="-1.79128">
        <ele>10</ele>
        <time>2023-11-01T12:50:58Z</time>
      </trkpt>
      <trkpt lat="46.49337" lon="-1.79279">
        <ele>8</ele>
        <time>2023-11-01T12:54:34Z</time>
      </trkpt>
      <trkpt lat="46.49422" lon="-1.79446">
        <ele>5</ele>
        <time>2023-11-01T12:57:44Z</time>
      </trkpt>
      <trkpt lat="46.49561" lon="-1.79515">
        <ele>3</ele>
        <time>2023-11-01T13:01:00Z</time>
      </trkpt>
      <trkpt lat="46.49626" lon="-1.79506">
        <ele>1</ele>
        <time>2023-11-01T13:02:28Z</time>
      </trkpt>
      <trkpt lat="46.49659" lon="-1.79635">
        <ele>4</ele>
        <time>2023-11-01T13:04:34Z</time>
      </trkpt>
      <trkpt lat="46.49499" lon="-1.796">
        <ele>4</ele>
        <time>2023-11-01T13:08:10Z</time>
      </trkpt>
      <trkpt lat="46.49269" lon="-1.79485">
        <ele>6</ele>
        <time>2023-11-01T13:13:34Z</time>
      </trkpt>
      <trkpt lat="46.49192" lon="-1.79527">
        <ele>7</ele>
        <time>2023-11-01T13:15:24Z</time>
      </trkpt>
      <trkpt lat="46.49095" lon="-1.79454">
        <ele>7</ele>
        <time>2023-11-01T13:17:50Z</time>
      </trkpt>
      <trkpt lat="46.48959" lon="-1.79609">
        <ele>8</ele>
        <time>2023-11-01T13:21:41Z</time>
      </trkpt>
      <trkpt lat="46.48935" lon="-1.79742">
        <ele>6</ele>
        <time>2023-11-01T13:23:47Z</time>
      </trkpt>
      <trkpt lat="46.48938" lon="-1.79862">
        <ele>6</ele>
        <time>2023-11-01T13:25:37Z</time>
      </trkpt>
      <trkpt lat="46.48935" lon="-1.79974">
        <ele>9</ele>
        <time>2023-11-01T13:27:20Z</time>
      </trkpt>
      <trkpt lat="46.49032" lon="-1.8039">
        <ele>9</ele>
        <time>2023-11-01T13:34:04Z</time>
      </trkpt>
      <trkpt lat="46.49154" lon="-1.80656">
        <ele>5</ele>
        <time>2023-11-01T13:38:58Z</time>
      </trkpt>
      <trkpt lat="46.4921" lon="-1.80768">
        <ele>5</ele>
        <time>2023-11-01T13:41:05Z</time>
      </trkpt>
      <trkpt lat="46.49201" lon="-1.80922">
        <ele>4</ele>
        <time>2023-11-01T13:43:27Z</time>
      </trkpt>
      <trkpt lat="46.49405" lon="-1.8118">
        <ele>7</ele>
        <time>2023-11-01T13:49:28Z</time>
      </trkpt>
      <trkpt lat="46.49674" lon="-1.81343">
        <ele>6</ele>
        <time>2023-11-01T13:55:57Z</time>
      </trkpt>
      <trkpt lat="46.49703" lon="-1.81403">
        <ele>3</ele>
        <time>2023-11-01T13:57:04Z</time>
      </trkpt>
      <trkpt lat="46.50064" lon="-1.81484">
        <ele>3</ele>
        <time>2023-11-01T14:05:11Z</time>
      </trkpt>
      <trkpt lat="46.50099" lon="-1.81291">
        <ele>8</ele>
        <time>2023-11-01T14:08:15Z</time>
      </trkpt>
      <trkpt lat="46.50099" lon="-1.81098">
        <ele>8</ele>
        <time>2023-11-01T14:11:12Z</time>
      </trkpt>
      <trkpt lat="46.50049" lon="-1.80854">
        <ele>11</ele>
        <time>2023-11-01T14:15:06Z</time>
      </trkpt>
      <trkpt lat="46.50211" lon="-1.80751">
        <ele>13</ele>
        <time>2023-11-01T14:19:02Z</time>
      </trkpt>
      <trkpt lat="46.50202" lon="-1.80635">
        <ele>12</ele>
        <time>2023-11-01T14:20:49Z</time>
      </trkpt>
      <trkpt lat="46.5017" lon="-1.80519">
        <ele>12</ele>
        <time>2023-11-01T14:22:44Z</time>
      </trkpt>
      <trkpt lat="46.50217" lon="-1.8036">
        <ele>10</ele>
        <time>2023-11-01T14:25:23Z</time>
      </trkpt>
      <trkpt lat="46.50261" lon="-1.79897">
        <ele>2</ele>
        <time>2023-11-01T14:32:32Z</time>
      </trkpt>
      <trkpt lat="46.50539" lon="-1.79012">
        <ele>2</ele>
        <time>2023-11-01T14:47:26Z</time>
      </trkpt>
      <trkpt lat="46.50158" lon="-1.78609">
        <ele>3</ele>
        <time>2023-11-01T14:57:55Z</time>
      </trkpt>
      <trkpt lat="46.4986" lon="-1.78489">
        <ele>5</ele>
        <time>2023-11-01T15:04:47Z</time>
      </trkpt>
      <trkpt lat="46.49609" lon="-1.79047">
        <ele>7</ele>
        <time>2023-11-01T15:15:00Z</time>
      </trkpt>
      <trkpt lat="46.4949" lon="-1.79038">
        <ele>11</ele>
        <time>2023-11-01T15:17:39Z</time>
      </trkpt>
    </trkseg>
  </trk>
</gpx>